sensor_id;sensor_type;location;lat;lon;timestamp;temperature;humidity
24560;DHT22;12727;49.934;8.656;2023-10-13T00:01:23;17.30;99.90
24560;DHT22;12727;49.934;8.656;2023-10-13T00:03:50;17.20;99.90
24560;DHT22;12727;49.934;8.656;2023-10-13T00:06:18;17.20;99.90
24560;DHT22;12727;49.934;8.656;2023-10-13T00:08:44;17.20;99.90
24560;DHT22;12727;49.934;8.656;2023-10-13T00:11:15;17.30;99.90
24560;DHT22;12727;49.934;8.656;2023-10-13T00:13:41;17.20;99.90
24560;DHT22;12727;49.934;8.656;2023-10-13T00:16:09;17.20;99.90
24560;DHT22;12727;49.934;8.656;2023-10-13T00:18:35;17.20;99.90
24560;DHT22;12727;49.934;8.656;2023-10-13T00:21:08;17.20;99.90
24560;DHT22;12727;49.934;8.656;2023-10-13T00:23:45;17.30;99.90
24560;DHT22;12727;49.934;8.656;2023-10-13T00:26:24;17.30;99.90
24560;DHT22;12727;49.934;8.656;2023-10-13T00:28:53;17.30;99.90
24560;DHT22;12727;49.934;8.656;2023-10-13T00:31:38;17.30;99.90
24560;DHT22;12727;49.934;8.656;2023-10-13T00:34:06;17.30;99.90
24560;DHT22;12727;49.934;8.656;2023-10-13T00:36:45;17.30;99.90
24560;DHT22;12727;49.934;8.656;2023-10-13T00:39:15;17.30;99.90
24560;DHT22;12727;49.934;8.656;2023-10-13T00:41:43;17.40;99.90
24560;DHT22;12727;49.934;8.656;2023-10-13T00:44:18;17.40;99.90
24560;DHT22;12727;49.934;8.656;2023-10-13T00:46:50;17.40;99.90
24560;DHT22;12727;49.934;8.656;2023-10-13T00:49:21;17.40;99.90
24560;DHT22;12727;49.934;8.656;2023-10-13T00:51:47;17.40;99.90
24560;DHT22;12727;49.934;8.656;2023-10-13T00:54:13;17.40;99.90
24560;DHT22;12727;49.934;8.656;2023-10-13T00:56:42;17.40;99.90
24560;DHT22;12727;49.934;8.656;2023-10-13T00:59:23;17.40;99.90
24560;DHT22;12727;49.934;8.656;2023-10-13T01:01:51;17.30;99.90
24560;DHT22;12727;49.934;8.656;2023-10-13T01:04:21;17.40;99.90
24560;DHT22;12727;49.934;8.656;2023-10-13T01:06:48;17.40;99.90
24560;DHT22;12727;49.934;8.656;2023-10-13T01:09:14;17.40;99.90
24560;DHT22;12727;49.934;8.656;2023-10-13T01:11:48;17.40;99.90
24560;DHT22;12727;49.934;8.656;2023-10-13T01:14:18;17.50;99.90
24560;DHT22;12727;49.934;8.656;2023-10-13T01:16:50;17.50;99.90
24560;DHT22;12727;49.934;8.656;2023-10-13T01:19:18;17.60;99.90
24560;DHT22;12727;49.934;8.656;2023-10-13T01:21:45;17.50;99.90
24560;DHT22;12727;49.934;8.656;2023-10-13T01:24:13;17.50;99.90
24560;DHT22;12727;49.934;8.656;2023-10-13T01:26:44;17.60;99.90
24560;DHT22;12727;49.934;8.656;2023-10-13T01:29:10;17.60;99.90
24560;DHT22;12727;49.934;8.656;2023-10-13T01:31:45;17.60;99.90
24560;DHT22;12727;49.934;8.656;2023-10-13T01:34:15;17.50;99.90
24560;DHT22;12727;49.934;8.656;2023-10-13T01:36:51;17.50;99.90
24560;DHT22;12727;49.934;8.656;2023-10-13T01:39:22;17.50;99.90
24560;DHT22;12727;49.934;8.656;2023-10-13T01:41:55;17.50;99.90
24560;DHT22;12727;49.934;8.656;2023-10-13T01:44:21;17.50;99.90
24560;DHT22;12727;49.934;8.656;2023-10-13T01:46:47;17.60;99.90
24560;DHT22;12727;49.934;8.656;2023-10-13T01:49:13;17.50;99.90
24560;DHT22;12727;49.934;8.656;2023-10-13T01:51:41;17.50;99.90
24560;DHT22;12727;49.934;8.656;2023-10-13T01:54:08;17.50;99.90
24560;DHT22;12727;49.934;8.656;2023-10-13T01:56:37;17.50;99.90
24560;DHT22;12727;49.934;8.656;2023-10-13T01:59:09;17.50;99.90
24560;DHT22;12727;49.934;8.656;2023-10-13T02:01:35;17.60;99.90
24560;DHT22;12727;49.934;8.656;2023-10-13T02:04:01;17.60;99.90
24560;DHT22;12727;49.934;8.656;2023-10-13T02:06:30;17.60;99.90
24560;DHT22;12727;49.934;8.656;2023-10-13T02:09:00;17.60;99.90
24560;DHT22;12727;49.934;8.656;2023-10-13T02:11:32;17.60;99.90
24560;DHT22;12727;49.934;8.656;2023-10-13T02:13:57;17.60;99.90
24560;DHT22;12727;49.934;8.656;2023-10-13T02:16:23;17.60;99.90
24560;DHT22;12727;49.934;8.656;2023-10-13T02:18:50;17.60;99.90
24560;DHT22;12727;49.934;8.656;2023-10-13T02:21:19;17.60;99.90
24560;DHT22;12727;49.934;8.656;2023-10-13T02:23:44;17.60;99.90
24560;DHT22;12727;49.934;8.656;2023-10-13T02:26:13;17.50;99.90
24560;DHT22;12727;49.934;8.656;2023-10-13T02:28:56;17.50;99.90
24560;DHT22;12727;49.934;8.656;2023-10-13T02:31:23;17.50;99.90
24560;DHT22;12727;49.934;8.656;2023-10-13T02:33:49;17.50;99.90
24560;DHT22;12727;49.934;8.656;2023-10-13T02:36:15;17.50;99.90
24560;DHT22;12727;49.934;8.656;2023-10-13T02:38:51;17.50;99.90
24560;DHT22;12727;49.934;8.656;2023-10-13T02:41:18;17.50;99.90
24560;DHT22;12727;49.934;8.656;2023-10-13T02:43:51;17.40;99.90
24560;DHT22;12727;49.934;8.656;2023-10-13T02:46:17;17.40;99.90
24560;DHT22;12727;49.934;8.656;2023-10-13T02:48:42;17.40;99.90
24560;DHT22;12727;49.934;8.656;2023-10-13T02:51:12;17.30;99.90
24560;DHT22;12727;49.934;8.656;2023-10-13T02:53:47;17.40;99.90
24560;DHT22;12727;49.934;8.656;2023-10-13T02:56:18;17.30;99.90
24560;DHT22;12727;49.934;8.656;2023-10-13T02:58:51;17.30;99.90
24560;DHT22;12727;49.934;8.656;2023-10-13T03:01:22;17.20;99.90
24560;DHT22;12727;49.934;8.656;2023-10-13T03:03:55;17.10;99.90
24560;DHT22;12727;49.934;8.656;2023-10-13T03:06:22;17.10;99.90
24560;DHT22;12727;49.934;8.656;2023-10-13T03:09:03;17.00;99.90
24560;DHT22;12727;49.934;8.656;2023-10-13T03:11:48;17.10;99.90
24560;DHT22;12727;49.934;8.656;2023-10-13T03:14:15;17.20;99.90
24560;DHT22;12727;49.934;8.656;2023-10-13T03:17:01;17.20;99.90
24560;DHT22;12727;49.934;8.656;2023-10-13T03:19:32;17.10;99.90
24560;DHT22;12727;49.934;8.656;2023-10-13T03:22:05;17.20;99.90
24560;DHT22;12727;49.934;8.656;2023-10-13T03:24:39;17.20;99.90
24560;DHT22;12727;49.934;8.656;2023-10-13T03:27:12;17.20;99.90
24560;DHT22;12727;49.934;8.656;2023-10-13T03:29:41;17.20;99.90
24560;DHT22;12727;49.934;8.656;2023-10-13T03:32:14;17.20;99.90
24560;DHT22;12727;49.934;8.656;2023-10-13T03:34:45;17.20;99.90
24560;DHT22;12727;49.934;8.656;2023-10-13T03:37:25;17.30;99.90
24560;DHT22;12727;49.934;8.656;2023-10-13T03:40:10;17.40;99.90
24560;DHT22;12727;49.934;8.656;2023-10-13T03:42:44;17.40;99.90
24560;DHT22;12727;49.934;8.656;2023-10-13T03:45:23;17.40;99.90
24560;DHT22;12727;49.934;8.656;2023-10-13T03:47:50;17.40;99.90
24560;DHT22;12727;49.934;8.656;2023-10-13T03:50:17;17.40;99.90
24560;DHT22;12727;49.934;8.656;2023-10-13T03:52:55;17.40;99.90
24560;DHT22;12727;49.934;8.656;2023-10-13T03:55:23;17.40;99.90
24560;DHT22;12727;49.934;8.656;2023-10-13T03:57:55;17.40;99.90
24560;DHT22;12727;49.934;8.656;2023-10-13T04:00:22;17.40;99.90
24560;DHT22;12727;49.934;8.656;2023-10-13T04:02:52;17.40;99.90
24560;DHT22;12727;49.934;8.656;2023-10-13T04:05:35;17.40;99.90
24560;DHT22;12727;49.934;8.656;2023-10-13T04:08:05;17.40;99.90
24560;DHT22;12727;49.934;8.656;2023-10-13T04:10:51;17.50;99.90
24560;DHT22;12727;49.934;8.656;2023-10-13T04:13:16;17.40;99.90
24560;DHT22;12727;49.934;8.656;2023-10-13T04:16:00;17.50;99.90
24560;DHT22;12727;49.934;8.656;2023-10-13T04:18:45;17.50;99.90
24560;DHT22;12727;49.934;8.656;2023-10-13T04:21:22;17.60;99.90
24560;DHT22;12727;49.934;8.656;2023-10-13T04:24:08;17.50;99.90
24560;DHT22;12727;49.934;8.656;2023-10-13T04:26:44;17.50;99.90
24560;DHT22;12727;49.934;8.656;2023-10-13T04:29:28;17.60;99.90
24560;DHT22;12727;49.934;8.656;2023-10-13T04:32:13;17.60;99.90
24560;DHT22;12727;49.934;8.656;2023-10-13T04:34:57;17.60;99.90
24560;DHT22;12727;49.934;8.656;2023-10-13T04:37:34;17.70;99.90
24560;DHT22;12727;49.934;8.656;2023-10-13T04:40:14;17.70;99.90
24560;DHT22;12727;49.934;8.656;2023-10-13T04:42:40;17.70;99.90
24560;DHT22;12727;49.934;8.656;2023-10-13T04:45:29;17.60;99.90
24560;DHT22;12727;49.934;8.656;2023-10-13T04:47:59;17.70;99.90
24560;DHT22;12727;49.934;8.656;2023-10-13T04:50:45;17.70;99.90
24560;DHT22;12727;49.934;8.656;2023-10-13T04:53:13;17.70;99.90
24560;DHT22;12727;49.934;8.656;2023-10-13T04:55:55;17.70;99.90
24560;DHT22;12727;49.934;8.656;2023-10-13T04:58:52;17.70;99.90
24560;DHT22;12727;49.934;8.656;2023-10-13T05:01:37;17.70;99.90
24560;DHT22;12727;49.934;8.656;2023-10-13T05:04:26;17.70;99.90
24560;DHT22;12727;49.934;8.656;2023-10-13T05:07:05;17.70;99.90
24560;DHT22;12727;49.934;8.656;2023-10-13T05:09:49;17.60;99.90
24560;DHT22;12727;49.934;8.656;2023-10-13T05:12:34;17.60;99.90
24560;DHT22;12727;49.934;8.656;2023-10-13T05:15:19;17.60;99.90
24560;DHT22;12727;49.934;8.656;2023-10-13T05:18:04;17.70;99.90
24560;DHT22;12727;49.934;8.656;2023-10-13T05:20:48;17.70;99.90
24560;DHT22;12727;49.934;8.656;2023-10-13T05:23:32;17.70;99.90
24560;DHT22;12727;49.934;8.656;2023-10-13T05:26:16;17.80;99.90
24560;DHT22;12727;49.934;8.656;2023-10-13T05:29:01;17.80;99.90
24560;DHT22;12727;49.934;8.656;2023-10-13T05:31:45;17.80;99.90
24560;DHT22;12727;49.934;8.656;2023-10-13T05:34:29;17.90;99.90
24560;DHT22;12727;49.934;8.656;2023-10-13T05:37:13;17.90;99.90
24560;DHT22;12727;49.934;8.656;2023-10-13T05:39:58;17.90;99.90
24560;DHT22;12727;49.934;8.656;2023-10-13T05:42:42;18.00;99.90
24560;DHT22;12727;49.934;8.656;2023-10-13T05:45:26;18.00;99.90
24560;DHT22;12727;49.934;8.656;2023-10-13T05:48:10;18.00;99.90
24560;DHT22;12727;49.934;8.656;2023-10-13T05:50:44;18.00;99.90
24560;DHT22;12727;49.934;8.656;2023-10-13T05:53:36;18.00;99.90
24560;DHT22;12727;49.934;8.656;2023-10-13T05:56:20;18.00;99.90
24560;DHT22;12727;49.934;8.656;2023-10-13T05:59:04;18.00;99.90
24560;DHT22;12727;49.934;8.656;2023-10-13T06:01:49;18.10;99.90
24560;DHT22;12727;49.934;8.656;2023-10-13T06:04:33;18.00;99.90
24560;DHT22;12727;49.934;8.656;2023-10-13T06:07:17;18.00;99.90
24560;DHT22;12727;49.934;8.656;2023-10-13T06:10:02;18.10;99.90
24560;DHT22;12727;49.934;8.656;2023-10-13T06:12:48;18.10;99.90
24560;DHT22;12727;49.934;8.656;2023-10-13T06:15:36;18.10;99.90
24560;DHT22;12727;49.934;8.656;2023-10-13T06:18:20;18.10;99.90
24560;DHT22;12727;49.934;8.656;2023-10-13T06:21:05;18.10;99.90
24560;DHT22;12727;49.934;8.656;2023-10-13T06:23:49;18.20;99.90
24560;DHT22;12727;49.934;8.656;2023-10-13T06:26:33;18.30;99.90
24560;DHT22;12727;49.934;8.656;2023-10-13T06:29:18;18.50;99.90
24560;DHT22;12727;49.934;8.656;2023-10-13T06:31:45;18.70;99.90
24560;DHT22;12727;49.934;8.656;2023-10-13T06:34:11;18.80;99.90
24560;DHT22;12727;49.934;8.656;2023-10-13T06:36:41;18.80;99.90
24560;DHT22;12727;49.934;8.656;2023-10-13T06:39:07;18.70;99.90
24560;DHT22;12727;49.934;8.656;2023-10-13T06:41:52;18.70;99.90
24560;DHT22;12727;49.934;8.656;2023-10-13T06:44:17;18.80;99.90
24560;DHT22;12727;49.934;8.656;2023-10-13T06:46:43;18.80;99.90
24560;DHT22;12727;49.934;8.656;2023-10-13T06:49:09;18.70;99.90
24560;DHT22;12727;49.934;8.656;2023-10-13T06:51:37;18.80;99.90
24560;DHT22;12727;49.934;8.656;2023-10-13T06:54:06;18.90;99.90
24560;DHT22;12727;49.934;8.656;2023-10-13T06:56:36;19.10;99.90
24560;DHT22;12727;49.934;8.656;2023-10-13T06:59:05;19.30;99.90
24560;DHT22;12727;49.934;8.656;2023-10-13T07:01:32;19.70;99.90
24560;DHT22;12727;49.934;8.656;2023-10-13T07:04:08;19.90;99.90
24560;DHT22;12727;49.934;8.656;2023-10-13T07:06:43;20.10;99.90
24560;DHT22;12727;49.934;8.656;2023-10-13T07:09:16;20.40;99.90
24560;DHT22;12727;49.934;8.656;2023-10-13T07:12:05;20.70;99.90
24560;DHT22;12727;49.934;8.656;2023-10-13T07:14:45;20.80;99.90
24560;DHT22;12727;49.934;8.656;2023-10-13T07:17:17;20.70;99.90
24560;DHT22;12727;49.934;8.656;2023-10-13T07:19:53;20.90;99.90
24560;DHT22;12727;49.934;8.656;2023-10-13T07:22:19;21.00;99.90
24560;DHT22;12727;49.934;8.656;2023-10-13T07:24:49;20.80;99.90
24560;DHT22;12727;49.934;8.656;2023-10-13T07:27:22;20.50;99.90
24560;DHT22;12727;49.934;8.656;2023-10-13T07:29:52;20.40;99.90
24560;DHT22;12727;49.934;8.656;2023-10-13T07:32:24;20.80;99.90
24560;DHT22;12727;49.934;8.656;2023-10-13T07:34:54;21.20;99.90
24560;DHT22;12727;49.934;8.656;2023-10-13T07:37:23;21.50;99.90
24560;DHT22;12727;49.934;8.656;2023-10-13T07:39:55;21.60;99.90
24560;DHT22;12727;49.934;8.656;2023-10-13T07:42:24;21.90;99.90
24560;DHT22;12727;49.934;8.656;2023-10-13T07:44:57;22.00;99.90
24560;DHT22;12727;49.934;8.656;2023-10-13T07:47:23;22.20;99.90
24560;DHT22;12727;49.934;8.656;2023-10-13T07:49:50;22.20;99.90
24560;DHT22;12727;49.934;8.656;2023-10-13T07:52:16;22.40;99.80
24560;DHT22;12727;49.934;8.656;2023-10-13T07:54:48;22.40;99.50
24560;DHT22;12727;49.934;8.656;2023-10-13T07:57:15;22.50;99.20
24560;DHT22;12727;49.934;8.656;2023-10-13T07:59:41;22.50;98.50
24560;DHT22;12727;49.934;8.656;2023-10-13T08:02:15;22.70;98.30
24560;DHT22;12727;49.934;8.656;2023-10-13T08:05:00;22.60;97.80
24560;DHT22;12727;49.934;8.656;2023-10-13T08:07:26;22.70;97.30
24560;DHT22;12727;49.934;8.656;2023-10-13T08:09:54;23.10;96.50
24560;DHT22;12727;49.934;8.656;2023-10-13T08:12:19;23.10;95.70
24560;DHT22;12727;49.934;8.656;2023-10-13T08:14:50;23.30;95.60
24560;DHT22;12727;49.934;8.656;2023-10-13T08:17:34;23.50;95.00
24560;DHT22;12727;49.934;8.656;2023-10-13T08:20:00;23.90;94.50
24560;DHT22;12727;49.934;8.656;2023-10-13T08:22:36;24.20;93.70
24560;DHT22;12727;49.934;8.656;2023-10-13T08:25:04;24.20;92.60
24560;DHT22;12727;49.934;8.656;2023-10-13T08:27:48;23.90;92.00
24560;DHT22;12727;49.934;8.656;2023-10-13T08:30:33;23.80;92.70
24560;DHT22;12727;49.934;8.656;2023-10-13T08:33:07;24.10;91.90
24560;DHT22;12727;49.934;8.656;2023-10-13T08:35:43;23.90;92.00
24560;DHT22;12727;49.934;8.656;2023-10-13T08:38:19;23.90;91.70
24560;DHT22;12727;49.934;8.656;2023-10-13T08:40:47;23.10;92.30
24560;DHT22;12727;49.934;8.656;2023-10-13T08:43:34;22.80;92.70
24560;DHT22;12727;49.934;8.656;2023-10-13T08:46:10;22.90;92.70
24560;DHT22;12727;49.934;8.656;2023-10-13T08:48:50;23.10;92.10
24560;DHT22;12727;49.934;8.656;2023-10-13T08:51:18;23.20;91.60
24560;DHT22;12727;49.934;8.656;2023-10-13T08:54:05;22.90;92.00
24560;DHT22;12727;49.934;8.656;2023-10-13T08:56:44;22.50;92.30
24560;DHT22;12727;49.934;8.656;2023-10-13T08:59:19;22.40;92.50
24560;DHT22;12727;49.934;8.656;2023-10-13T09:01:58;22.50;92.50
24560;DHT22;12727;49.934;8.656;2023-10-13T09:04:42;22.60;92.30
24560;DHT22;12727;49.934;8.656;2023-10-13T09:07:09;22.50;92.40
24560;DHT22;12727;49.934;8.656;2023-10-13T09:14:53;22.70;92.20
24560;DHT22;12727;49.934;8.656;2023-10-13T09:17:30;22.70;92.10
24560;DHT22;12727;49.934;8.656;2023-10-13T09:20:00;23.30;91.80
24560;DHT22;12727;49.934;8.656;2023-10-13T09:22:46;24.10;90.60
24560;DHT22;12727;49.934;8.656;2023-10-13T09:25:36;25.00;89.50
24560;DHT22;12727;49.934;8.656;2023-10-13T09:28:13;26.10;85.20
24560;DHT22;12727;49.934;8.656;2023-10-13T09:30:51;27.00;82.40
24560;DHT22;12727;49.934;8.656;2023-10-13T09:33:27;27.50;78.30
24560;DHT22;12727;49.934;8.656;2023-10-13T09:36:02;27.80;75.90
24560;DHT22;12727;49.934;8.656;2023-10-13T09:38:36;28.00;74.20
24560;DHT22;12727;49.934;8.656;2023-10-13T09:41:05;28.20;72.40
24560;DHT22;12727;49.934;8.656;2023-10-13T09:43:52;28.10;70.60
24560;DHT22;12727;49.934;8.656;2023-10-13T09:46:21;28.30;68.80
24560;DHT22;12727;49.934;8.656;2023-10-13T09:48:49;28.20;69.20
24560;DHT22;12727;49.934;8.656;2023-10-13T09:51:30;28.30;68.90
24560;DHT22;12727;49.934;8.656;2023-10-13T09:54:02;28.60;67.60
24560;DHT22;12727;49.934;8.656;2023-10-13T09:56:46;28.30;66.90
24560;DHT22;12727;49.934;8.656;2023-10-13T09:59:22;26.80;69.90
24560;DHT22;12727;49.934;8.656;2023-10-13T10:01:51;25.40;72.70
24560;DHT22;12727;49.934;8.656;2023-10-13T10:04:23;24.60;75.50
24560;DHT22;12727;49.934;8.656;2023-10-13T10:06:56;24.30;77.30
24560;DHT22;12727;49.934;8.656;2023-10-13T10:09:32;24.10;77.80
24560;DHT22;12727;49.934;8.656;2023-10-13T10:13:13;24.50;76.90
24560;DHT22;12727;49.934;8.656;2023-10-13T10:15:36;24.30;77.40
24560;DHT22;12727;49.934;8.656;2023-10-13T10:18:22;24.40;77.00
24560;DHT22;12727;49.934;8.656;2023-10-13T10:20:49;26.00;75.00
24560;DHT22;12727;49.934;8.656;2023-10-13T10:23:28;27.30;72.00
24560;DHT22;12727;49.934;8.656;2023-10-13T10:26:16;27.80;68.80
24560;DHT22;12727;49.934;8.656;2023-10-13T10:28:48;26.40;70.70
24560;DHT22;12727;49.934;8.656;2023-10-13T10:31:14;25.50;74.40
24560;DHT22;12727;49.934;8.656;2023-10-13T10:33:45;25.50;75.10
24560;DHT22;12727;49.934;8.656;2023-10-13T10:36:12;25.00;75.20
24560;DHT22;12727;49.934;8.656;2023-10-13T10:38:56;24.70;76.50
24560;DHT22;12727;49.934;8.656;2023-10-13T10:41:29;24.30;77.30
24560;DHT22;12727;49.934;8.656;2023-10-13T10:44:08;24.60;78.00
24560;DHT22;12727;49.934;8.656;2023-10-13T10:46:34;25.50;76.40
24560;DHT22;12727;49.934;8.656;2023-10-13T10:49:07;25.60;74.60
24560;DHT22;12727;49.934;8.656;2023-10-13T10:51:36;25.50;75.10
24560;DHT22;12727;49.934;8.656;2023-10-13T10:54:18;26.60;74.30
24560;DHT22;12727;49.934;8.656;2023-10-13T10:56:44;28.10;69.60
24560;DHT22;12727;49.934;8.656;2023-10-13T10:59:09;28.70;68.60
24560;DHT22;12727;49.934;8.656;2023-10-13T11:01:45;29.00;66.80
24560;DHT22;12727;49.934;8.656;2023-10-13T11:04:16;28.70;66.50
24560;DHT22;12727;49.934;8.656;2023-10-13T11:06:53;28.10;67.70
24560;DHT22;12727;49.934;8.656;2023-10-13T11:11:55;26.90;69.40
24560;DHT22;12727;49.934;8.656;2023-10-13T11:14:27;27.60;67.30
24560;DHT22;12727;49.934;8.656;2023-10-13T11:16:54;28.20;66.30
24560;DHT22;12727;49.934;8.656;2023-10-13T11:19:22;27.90;66.00
24560;DHT22;12727;49.934;8.656;2023-10-13T11:21:58;27.30;67.20
24560;DHT22;12727;49.934;8.656;2023-10-13T11:24:27;26.80;69.20
24560;DHT22;12727;49.934;8.656;2023-10-13T11:26:52;26.40;69.90
24560;DHT22;12727;49.934;8.656;2023-10-13T11:29:31;26.10;70.60
24560;DHT22;12727;49.934;8.656;2023-10-13T11:31:56;25.90;70.50
24560;DHT22;12727;49.934;8.656;2023-10-13T11:34:25;25.60;71.30
24560;DHT22;12727;49.934;8.656;2023-10-13T11:36:51;25.50;72.20
24560;DHT22;12727;49.934;8.656;2023-10-13T11:39:17;25.40;72.50
24560;DHT22;12727;49.934;8.656;2023-10-13T11:41:49;25.40;73.50
24560;DHT22;12727;49.934;8.656;2023-10-13T11:44:21;25.40;73.30
24560;DHT22;12727;49.934;8.656;2023-10-13T11:46:51;25.50;73.50
24560;DHT22;12727;49.934;8.656;2023-10-13T11:49:34;25.40;73.50
24560;DHT22;12727;49.934;8.656;2023-10-13T11:52:02;25.40;73.40
24560;DHT22;12727;49.934;8.656;2023-10-13T11:54:41;25.40;73.30
24560;DHT22;12727;49.934;8.656;2023-10-13T11:57:07;25.50;73.50
24560;DHT22;12727;49.934;8.656;2023-10-13T11:59:33;25.50;73.90
24560;DHT22;12727;49.934;8.656;2023-10-13T12:02:01;25.60;73.40
24560;DHT22;12727;49.934;8.656;2023-10-13T12:04:37;25.70;73.30
24560;DHT22;12727;49.934;8.656;2023-10-13T12:07:15;25.80;72.40
24560;DHT22;12727;49.934;8.656;2023-10-13T12:10:05;25.70;72.30
24560;DHT22;12727;49.934;8.656;2023-10-13T12:12:32;25.70;71.80
24560;DHT22;12727;49.934;8.656;2023-10-13T12:15:06;25.80;71.70
24560;DHT22;12727;49.934;8.656;2023-10-13T12:17:36;25.80;70.30
24560;DHT22;12727;49.934;8.656;2023-10-13T12:20:06;25.90;71.00
24560;DHT22;12727;49.934;8.656;2023-10-13T12:22:38;26.00;70.80
24560;DHT22;12727;49.934;8.656;2023-10-13T12:25:05;26.10;70.40
24560;DHT22;12727;49.934;8.656;2023-10-13T12:27:45;26.10;69.50
24560;DHT22;12727;49.934;8.656;2023-10-13T12:30:15;26.10;69.10
24560;DHT22;12727;49.934;8.656;2023-10-13T12:32:51;26.00;69.30
24560;DHT22;12727;49.934;8.656;2023-10-13T12:35:25;26.00;69.60
24560;DHT22;12727;49.934;8.656;2023-10-13T12:38:00;26.00;69.60
24560;DHT22;12727;49.934;8.656;2023-10-13T12:40:42;26.00;70.00
24560;DHT22;12727;49.934;8.656;2023-10-13T12:43:26;26.00;70.00
24560;DHT22;12727;49.934;8.656;2023-10-13T12:46:10;26.10;69.50
24560;DHT22;12727;49.934;8.656;2023-10-13T12:48:54;26.20;69.40
24560;DHT22;12727;49.934;8.656;2023-10-13T12:51:38;26.20;69.40
24560;DHT22;12727;49.934;8.656;2023-10-13T12:54:04;26.40;69.50
24560;DHT22;12727;49.934;8.656;2023-10-13T12:56:48;26.40;69.60
24560;DHT22;12727;49.934;8.656;2023-10-13T12:59:13;26.50;69.40
24560;DHT22;12727;49.934;8.656;2023-10-13T13:01:39;26.40;69.90
24560;DHT22;12727;49.934;8.656;2023-10-13T13:04:11;26.30;69.50
24560;DHT22;12727;49.934;8.656;2023-10-13T13:06:44;26.20;69.50
24560;DHT22;12727;49.934;8.656;2023-10-13T13:09:09;26.00;70.00
24560;DHT22;12727;49.934;8.656;2023-10-13T13:11:35;25.80;70.30
24560;DHT22;12727;49.934;8.656;2023-10-13T13:14:05;25.80;70.60
24560;DHT22;12727;49.934;8.656;2023-10-13T13:16:33;25.80;71.30
24560;DHT22;12727;49.934;8.656;2023-10-13T13:18:58;25.70;71.50
24560;DHT22;12727;49.934;8.656;2023-10-13T13:21:24;25.70;71.30
24560;DHT22;12727;49.934;8.656;2023-10-13T13:23:50;25.70;72.20
24560;DHT22;12727;49.934;8.656;2023-10-13T13:26:16;25.60;72.80
24560;DHT22;12727;49.934;8.656;2023-10-13T13:28:43;25.50;73.20
24560;DHT22;12727;49.934;8.656;2023-10-13T13:31:09;25.50;72.70
24560;DHT22;12727;49.934;8.656;2023-10-13T13:33:40;25.50;72.70
24560;DHT22;12727;49.934;8.656;2023-10-13T13:36:08;25.60;72.20
24560;DHT22;12727;49.934;8.656;2023-10-13T13:38:41;25.70;72.20
24560;DHT22;12727;49.934;8.656;2023-10-13T13:41:14;25.70;72.40
24560;DHT22;12727;49.934;8.656;2023-10-13T13:43:51;25.70;72.00
24560;DHT22;12727;49.934;8.656;2023-10-13T13:46:21;25.70;72.20
24560;DHT22;12727;49.934;8.656;2023-10-13T13:48:50;25.60;71.70
24560;DHT22;12727;49.934;8.656;2023-10-13T13:51:17;25.50;70.40
24560;DHT22;12727;49.934;8.656;2023-10-13T13:53:52;25.50;70.50
24560;DHT22;12727;49.934;8.656;2023-10-13T13:56:18;25.40;70.80
24560;DHT22;12727;49.934;8.656;2023-10-13T13:58:53;25.30;71.50
24560;DHT22;12727;49.934;8.656;2023-10-13T14:01:20;25.20;71.80
24560;DHT22;12727;49.934;8.656;2023-10-13T14:03:51;25.20;72.20
24560;DHT22;12727;49.934;8.656;2023-10-13T14:06:21;25.10;72.30
24560;DHT22;12727;49.934;8.656;2023-10-13T14:08:53;25.10;71.90
24560;DHT22;12727;49.934;8.656;2023-10-13T14:11:23;25.30;71.70
24560;DHT22;12727;49.934;8.656;2023-10-13T14:14:15;25.50;69.80
24560;DHT22;12727;49.934;8.656;2023-10-13T14:16:53;25.80;66.20
24560;DHT22;12727;49.934;8.656;2023-10-13T14:19:20;26.00;64.60
24560;DHT22;12727;49.934;8.656;2023-10-13T14:21:55;26.20;63.40
24560;DHT22;12727;49.934;8.656;2023-10-13T14:24:21;26.20;61.70
24560;DHT22;12727;49.934;8.656;2023-10-13T14:26:56;26.10;60.80
24560;DHT22;12727;49.934;8.656;2023-10-13T14:29:24;26.00;61.30
24560;DHT22;12727;49.934;8.656;2023-10-13T14:31:51;25.80;61.90
24560;DHT22;12727;49.934;8.656;2023-10-13T14:34:17;25.80;61.90
24560;DHT22;12727;49.934;8.656;2023-10-13T14:36:43;25.80;61.90
24560;DHT22;12727;49.934;8.656;2023-10-13T14:39:14;25.70;62.40
24560;DHT22;12727;49.934;8.656;2023-10-13T14:41:39;25.60;62.20
24560;DHT22;12727;49.934;8.656;2023-10-13T14:44:05;25.50;62.60
24560;DHT22;12727;49.934;8.656;2023-10-13T14:46:31;25.50;63.00
24560;DHT22;12727;49.934;8.656;2023-10-13T14:48:56;25.50;62.60
24560;DHT22;12727;49.934;8.656;2023-10-13T14:51:22;25.60;62.70
24560;DHT22;12727;49.934;8.656;2023-10-13T14:53:50;25.60;62.80
24560;DHT22;12727;49.934;8.656;2023-10-13T14:56:22;25.60;63.20
24560;DHT22;12727;49.934;8.656;2023-10-13T14:58:51;25.60;63.20
24560;DHT22;12727;49.934;8.656;2023-10-13T15:01:19;25.60;64.10
24560;DHT22;12727;49.934;8.656;2023-10-13T15:03:46;25.50;64.00
24560;DHT22;12727;49.934;8.656;2023-10-13T15:06:19;25.40;63.20
24560;DHT22;12727;49.934;8.656;2023-10-13T15:08:58;25.40;63.40
24560;DHT22;12727;49.934;8.656;2023-10-13T15:11:25;25.30;63.70
24560;DHT22;12727;49.934;8.656;2023-10-13T15:14:11;25.20;64.70
24560;DHT22;12727;49.934;8.656;2023-10-13T15:16:38;24.90;65.10
24560;DHT22;12727;49.934;8.656;2023-10-13T15:19:04;25.00;65.50
24560;DHT22;12727;49.934;8.656;2023-10-13T15:21:32;24.90;65.80
24560;DHT22;12727;49.934;8.656;2023-10-13T15:24:01;24.90;66.30
24560;DHT22;12727;49.934;8.656;2023-10-13T15:26:39;24.80;66.00
24560;DHT22;12727;49.934;8.656;2023-10-13T15:29:07;24.90;65.90
24560;DHT22;12727;49.934;8.656;2023-10-13T15:31:35;24.80;66.20
24560;DHT22;12727;49.934;8.656;2023-10-13T15:34:04;24.80;67.00
24560;DHT22;12727;49.934;8.656;2023-10-13T15:36:41;24.70;67.30
24560;DHT22;12727;49.934;8.656;2023-10-13T15:39:13;24.60;67.50
24560;DHT22;12727;49.934;8.656;2023-10-13T15:41:41;24.60;68.50
24560;DHT22;12727;49.934;8.656;2023-10-13T15:44:13;24.50;69.20
24560;DHT22;12727;49.934;8.656;2023-10-13T15:46:39;24.40;69.20
24560;DHT22;12727;49.934;8.656;2023-10-13T15:49:05;24.30;69.60
24560;DHT22;12727;49.934;8.656;2023-10-13T15:51:35;24.30;69.30
24560;DHT22;12727;49.934;8.656;2023-10-13T15:54:02;24.30;69.10
24560;DHT22;12727;49.934;8.656;2023-10-13T15:56:29;24.20;68.90
24560;DHT22;12727;49.934;8.656;2023-10-13T15:58:58;24.20;68.50
24560;DHT22;12727;49.934;8.656;2023-10-13T16:01:26;24.20;68.70
24560;DHT22;12727;49.934;8.656;2023-10-13T16:03:52;24.20;68.10
24560;DHT22;12727;49.934;8.656;2023-10-13T16:06:21;24.20;68.10
24560;DHT22;12727;49.934;8.656;2023-10-13T16:08:53;24.20;68.20
24560;DHT22;12727;49.934;8.656;2023-10-13T16:11:20;24.10;68.50
24560;DHT22;12727;49.934;8.656;2023-10-13T16:13:48;24.20;67.90
24560;DHT22;12727;49.934;8.656;2023-10-13T16:16:18;24.20;68.00